Terminal Aerodrome Forecast
Issued by NWS Cleveland, OH

Home | Current Version | Previous Version | Text Only | Print | Product List | Glossary Off
Versions: 1 2 3 4 5 6 7 8 9 10 11 12 13 14 15 16

000
FTUS41 KCLE 280900 AAA
TAFCAK
TAF AMD
KCAK 280943Z 2810/2906 04005KT P6SM SCT250
     FM281230 01006KT P6SM BKN025
     FM281700 35006KT P6SM FEW025
     FM290000 02005KT P6SM SCT250=

USA.gov is the U.S. government's official web portal to all federal, state and local government web resources and services.